createdAt,value
2018-06-28T00:00:38.109Z,85.50
2018-06-28T00:03:06.459Z,85.60
2018-06-28T00:05:34.800Z,85.90
2018-06-28T00:08:03.178Z,86.30
2018-06-28T00:10:31.569Z,86.40
2018-06-28T00:12:59.944Z,86.70
2018-06-28T00:15:28.463Z,87.00
2018-06-28T00:17:56.992Z,87.20
2018-06-28T00:20:25.298Z,87.40
2018-06-28T00:22:53.613Z,87.60
2018-06-28T00:25:21.951Z,87.90
2018-06-28T00:27:50.243Z,87.90
2018-06-28T00:30:18.580Z,88.20
2018-06-28T00:32:46.979Z,88.60
2018-06-28T00:35:15.304Z,88.70
2018-06-28T00:37:43.688Z,88.80
2018-06-28T00:40:12.049Z,89.20
2018-06-28T00:42:40.419Z,89.50
2018-06-28T00:45:09.078Z,89.60
2018-06-28T00:47:37.500Z,89.60
2018-06-28T00:50:05.958Z,89.70
2018-06-28T00:52:34.417Z,90.00
2018-06-28T00:55:03.744Z,90.00
2018-06-28T00:57:32.716Z,90.00
2018-06-28T01:00:01.052Z,90.20
2018-06-28T01:02:29.360Z,90.20
2018-06-28T01:04:57.692Z,90.30
2018-06-28T01:07:25.996Z,90.30
2018-06-28T01:09:54.282Z,90.40
2018-06-28T01:12:22.619Z,90.40
2018-06-28T01:14:50.960Z,90.50
2018-06-28T01:17:19.241Z,90.70
2018-06-28T01:19:47.547Z,90.70
2018-06-28T01:22:15.873Z,90.70
2018-06-28T01:24:44.197Z,90.80
2018-06-28T01:27:12.706Z,91.00
2018-06-28T01:29:42.308Z,91.00
2018-06-28T01:32:10.659Z,91.10
2018-06-28T01:34:39.094Z,91.20
2018-06-28T01:37:07.477Z,91.20
2018-06-28T01:39:35.818Z,91.30
2018-06-28T01:42:15.395Z,91.40
2018-06-28T01:44:43.910Z,91.50
2018-06-28T01:47:12.249Z,91.60
2018-06-28T01:49:40.625Z,91.70
2018-06-28T01:52:08.963Z,91.90
2018-06-28T01:54:37.370Z,91.80
2018-06-28T01:57:05.771Z,91.90
2018-06-28T01:59:34.138Z,91.80
2018-06-28T02:02:02.491Z,91.90
2018-06-28T02:04:30.801Z,92.30
2018-06-28T02:06:59.112Z,92.10
2018-06-28T02:09:27.456Z,92.20
2018-06-28T02:11:55.772Z,92.10
2018-06-28T02:14:24.101Z,92.00
2018-06-28T02:16:52.492Z,92.20
2018-06-28T02:19:21.014Z,92.20
2018-06-28T02:21:49.520Z,92.50
2018-06-28T02:24:17.929Z,92.40
2018-06-28T02:26:46.346Z,92.40
2018-06-28T02:29:14.691Z,92.40
2018-06-28T02:31:43.030Z,92.50
2018-06-28T02:34:11.380Z,92.60
2018-06-28T02:36:39.731Z,92.70
2018-06-28T02:39:08.645Z,92.80
2018-06-28T02:41:36.981Z,92.80
2018-06-28T02:44:05.375Z,93.00
2018-06-28T02:46:34.021Z,92.90
2018-06-28T02:49:02.350Z,93.00
2018-06-28T02:51:30.684Z,93.10
2018-06-28T02:53:59.017Z,93.10
2018-06-28T02:56:27.333Z,93.10
2018-06-28T02:58:55.836Z,93.10
2018-06-28T03:01:24.366Z,93.10
2018-06-28T03:03:52.836Z,93.20
2018-06-28T03:06:21.152Z,93.30
2018-06-28T03:08:49.468Z,93.30
2018-06-28T03:11:18.033Z,93.30
2018-06-28T03:13:46.392Z,93.20
2018-06-28T03:16:14.710Z,93.20
2018-06-28T03:18:43.203Z,93.30
2018-06-28T03:21:11.600Z,93.20
2018-06-28T03:23:39.945Z,93.30
2018-06-28T03:26:08.311Z,93.20
2018-06-28T03:28:36.674Z,93.30
2018-06-28T03:31:05.273Z,93.20
2018-06-28T03:33:33.456Z,93.00
2018-06-28T03:36:01.980Z,93.00
2018-06-28T03:38:31.123Z,92.90
2018-06-28T03:40:59.595Z,93.00
2018-06-28T03:43:28.346Z,93.20
2018-06-28T03:45:56.727Z,93.20
2018-06-28T03:48:25.024Z,93.20
2018-06-28T03:50:54.204Z,93.10
2018-06-28T03:53:22.549Z,93.10
2018-06-28T03:55:50.929Z,93.10
2018-06-28T03:58:19.269Z,93.10
2018-06-28T04:00:47.583Z,93.20
2018-06-28T04:03:15.929Z,93.20
2018-06-28T04:05:44.261Z,93.20
2018-06-28T04:08:12.671Z,93.30
2018-06-28T04:10:41.064Z,93.30
2018-06-28T04:13:09.360Z,93.10
2018-06-28T04:15:37.864Z,92.90
2018-06-28T04:18:06.467Z,92.80
2018-06-28T04:23:02.860Z,92.50
2018-06-28T04:25:31.189Z,92.50
2018-06-28T04:30:27.614Z,92.20
2018-06-28T04:32:55.991Z,92.20
2018-06-28T04:35:24.324Z,92.00
2018-06-28T04:37:52.649Z,92.10
2018-06-28T04:40:21.046Z,91.90
2018-06-28T04:42:49.412Z,91.70
2018-06-28T04:45:17.726Z,91.90
2018-06-28T04:47:46.108Z,91.50
2018-06-28T04:50:14.465Z,91.40
2018-06-28T04:52:42.970Z,91.30
2018-06-28T04:55:11.351Z,91.10
2018-06-28T04:57:39.766Z,90.70
2018-06-28T05:00:08.119Z,91.10
2018-06-28T05:02:36.581Z,90.50
2018-06-28T05:05:04.857Z,90.30
2018-06-28T05:07:33.373Z,89.50
2018-06-28T05:10:01.753Z,89.90
2018-06-28T05:12:30.127Z,89.90
2018-06-28T05:14:58.497Z,89.30
2018-06-28T05:17:26.935Z,89.10
2018-06-28T05:19:55.307Z,88.80
2018-06-28T05:22:23.787Z,88.50
2018-06-28T05:24:52.325Z,88.10
2018-06-28T05:27:20.842Z,88.40
2018-06-28T05:29:49.694Z,87.50
2018-06-28T05:32:18.145Z,86.70
2018-06-28T05:34:46.628Z,86.60
2018-06-28T05:37:14.942Z,86.20
2018-06-28T05:39:43.317Z,86.10
2018-06-28T05:42:13.192Z,86.10
2018-06-28T05:44:41.510Z,85.40
2018-06-28T05:47:09.985Z,85.60
2018-06-28T05:49:38.893Z,85.80
2018-06-28T05:52:07.324Z,85.60
2018-06-28T05:54:35.663Z,85.70
2018-06-28T05:57:04.076Z,85.30
2018-06-28T05:59:32.465Z,84.10
2018-06-28T06:11:14.142Z,83.00
2018-06-28T06:13:42.490Z,83.70
2018-06-28T06:16:10.867Z,83.30
2018-06-28T06:18:39.241Z,83.20
2018-06-28T06:21:07.536Z,83.30
2018-06-28T06:23:35.921Z,83.30
2018-06-28T06:26:04.272Z,83.00
2018-06-28T06:28:32.744Z,82.90
2018-06-28T06:31:01.318Z,82.50
2018-06-28T06:33:29.777Z,82.80
2018-06-28T06:35:58.232Z,82.20
2018-06-28T06:38:26.893Z,81.40
2018-06-28T06:40:55.215Z,81.10
2018-06-28T06:43:23.586Z,81.30
2018-06-28T06:45:51.893Z,81.40
2018-06-28T06:48:20.220Z,81.10
2018-06-28T06:50:48.537Z,80.90
2018-06-28T06:53:16.874Z,80.40
2018-06-28T06:55:45.253Z,80.20
2018-06-28T06:58:18.401Z,79.80
2018-06-28T07:00:58.588Z,80.40
2018-06-28T07:03:28.664Z,79.30
2018-06-28T07:05:57.052Z,78.70
2018-06-28T07:08:25.472Z,79.60
2018-06-28T07:10:53.884Z,78.90
2018-06-28T07:13:22.199Z,78.80
2018-06-28T07:15:50.588Z,78.20
2018-06-28T07:18:19.001Z,78.50
2018-06-28T07:20:47.435Z,78.40
2018-06-28T07:23:15.888Z,77.80
2018-06-28T07:25:44.258Z,77.20
2018-06-28T07:28:12.673Z,76.40
2018-06-28T07:30:41.063Z,74.80
2018-06-28T07:33:09.490Z,75.10
2018-06-28T07:35:37.960Z,75.10
2018-06-28T07:38:06.389Z,75.40
2018-06-28T07:40:34.729Z,74.90
2018-06-28T07:43:03.091Z,74.00
2018-06-28T07:45:32.344Z,73.70
2018-06-28T07:48:00.763Z,72.10
2018-06-28T07:50:29.155Z,71.90
2018-06-28T07:52:57.494Z,72.50
2018-06-28T07:55:25.860Z,71.80
2018-06-28T07:57:54.234Z,71.70
2018-06-28T08:00:22.628Z,71.80
2018-06-28T08:02:50.973Z,71.40
2018-06-28T08:05:19.313Z,70.80
2018-06-28T08:07:47.726Z,71.00
2018-06-28T08:10:16.212Z,70.40
2018-06-28T08:12:44.631Z,70.60
2018-06-28T08:15:13.504Z,70.20
2018-06-28T08:17:41.917Z,69.80
2018-06-28T08:20:10.279Z,69.50
2018-06-28T08:22:38.684Z,69.40
2018-06-28T08:25:07.051Z,68.90
2018-06-28T08:27:35.501Z,69.90
2018-06-28T08:30:03.935Z,68.60
2018-06-28T08:32:33.107Z,68.30
2018-06-28T08:35:01.401Z,68.30
2018-06-28T08:37:29.708Z,68.00
2018-06-28T08:39:58.117Z,68.30
2018-06-28T08:42:26.520Z,67.40
2018-06-28T08:44:54.876Z,68.20
2018-06-28T08:47:23.412Z,67.90
2018-06-28T08:49:51.770Z,65.90
2018-06-28T08:52:20.244Z,65.10
2018-06-28T08:54:48.803Z,64.10
2018-06-28T08:57:17.141Z,64.00
2018-06-28T08:59:45.553Z,63.70
2018-06-28T09:02:13.891Z,63.20
2018-06-28T09:04:42.274Z,63.00
2018-06-28T09:07:10.738Z,62.40
2018-06-28T09:09:39.048Z,62.30
2018-06-28T09:14:35.475Z,62.40
2018-06-28T09:17:03.845Z,62.40
2018-06-28T09:19:32.285Z,63.00
2018-06-28T09:22:02.039Z,63.80
2018-06-28T09:24:30.597Z,62.80
2018-06-28T09:26:59.069Z,62.50
2018-06-28T09:29:27.592Z,62.60
2018-06-28T09:31:55.998Z,61.30
2018-06-28T09:34:24.494Z,61.40
2018-06-28T09:36:52.830Z,62.00
2018-06-28T09:39:21.154Z,62.30
2018-06-28T09:41:49.488Z,62.80
2018-06-28T09:44:17.849Z,61.00
2018-06-28T09:46:46.226Z,60.90
2018-06-28T09:49:14.648Z,62.40
2018-06-28T09:51:43.063Z,61.80
2018-06-28T09:54:11.666Z,60.40
2018-06-28T09:56:40.009Z,60.40
2018-06-28T09:59:08.400Z,59.70
2018-06-28T10:01:36.739Z,60.70
2018-06-28T10:04:05.238Z,59.80
2018-06-28T10:06:34.537Z,59.70
2018-06-28T10:09:03.149Z,60.30
2018-06-28T10:11:31.836Z,60.60
2018-06-28T10:14:00.180Z,60.90
2018-06-28T10:16:28.557Z,60.20
2018-06-28T10:18:56.897Z,60.30
2018-06-28T10:21:25.340Z,60.60
2018-06-28T10:23:53.650Z,60.20
2018-06-28T10:26:22.016Z,59.70
2018-06-28T10:28:50.370Z,60.00
2018-06-28T10:31:18.794Z,60.60
2018-06-28T10:33:47.150Z,60.50
2018-06-28T10:36:15.539Z,60.60
2018-06-28T10:38:44.440Z,59.90
2018-06-28T10:41:12.770Z,59.70
2018-06-28T10:43:41.247Z,59.50
2018-06-28T10:46:09.862Z,59.70
2018-06-28T10:48:38.335Z,59.50
2018-06-28T10:51:06.822Z,58.70
2018-06-28T10:53:35.179Z,58.80
2018-06-28T10:56:03.477Z,59.30
2018-06-28T10:58:31.864Z,60.30
2018-06-28T11:01:00.192Z,60.30
2018-06-28T11:03:28.517Z,60.50
2018-06-28T11:05:56.969Z,57.80
2018-06-28T11:08:25.432Z,57.90
2018-06-28T11:10:53.692Z,58.10
2018-06-28T11:13:22.002Z,58.30
2018-06-28T11:15:51.506Z,58.90
2018-06-28T11:18:19.920Z,59.00
2018-06-28T11:20:51.440Z,57.80
2018-06-28T11:23:19.895Z,57.00
2018-06-28T11:25:49.375Z,57.60
2018-06-28T11:28:17.819Z,57.20
2018-06-28T11:30:48.508Z,57.50
2018-06-28T11:33:17.035Z,56.50
2018-06-28T11:35:45.614Z,56.30
2018-06-28T11:38:14.046Z,57.10
2018-06-28T11:40:42.430Z,57.40
2018-06-28T11:43:10.808Z,57.60
2018-06-28T11:45:39.113Z,58.50
2018-06-28T11:48:07.542Z,58.70
2018-06-28T11:50:35.896Z,57.50
2018-06-28T11:53:04.267Z,56.80
2018-06-28T11:55:32.688Z,56.40
2018-06-28T11:58:01.025Z,56.30
2018-06-28T12:00:29.586Z,55.40
2018-06-28T12:02:58.095Z,55.20
2018-06-28T12:05:26.503Z,55.90
2018-06-28T12:07:55.059Z,57.20
2018-06-28T12:10:23.620Z,57.90
2018-06-28T12:12:52.849Z,55.50
2018-06-28T12:15:21.436Z,55.70
2018-06-28T12:17:50.816Z,55.20
2018-06-28T12:20:19.141Z,55.40
2018-06-28T12:22:47.443Z,55.60
2018-06-28T12:25:15.790Z,55.20
2018-06-28T12:30:12.268Z,54.40
2018-06-28T12:32:40.618Z,54.00
2018-06-28T12:35:09.056Z,53.60
2018-06-28T12:37:37.484Z,54.40
2018-06-28T12:40:06.149Z,53.80
2018-06-28T12:42:34.511Z,53.80
2018-06-28T12:45:02.907Z,56.10
2018-06-28T12:47:54.479Z,55.00
2018-06-28T12:50:22.865Z,54.90
2018-06-28T12:53:07.922Z,55.60
2018-06-28T12:57:17.321Z,54.60
2018-06-28T12:59:45.735Z,54.30
2018-06-28T13:02:14.116Z,54.30
2018-06-28T13:04:42.495Z,55.00
2018-06-28T13:07:10.886Z,53.30
2018-06-28T13:09:39.279Z,54.60
2018-06-28T13:12:07.864Z,53.00
2018-06-28T13:14:36.234Z,53.70
2018-06-28T13:17:04.691Z,51.90
2018-06-28T13:19:33.243Z,51.80
2018-06-28T13:22:01.675Z,53.40
2018-06-28T13:24:30.007Z,53.50
2018-06-28T13:26:58.383Z,50.90
2018-06-28T13:29:26.745Z,52.10
2018-06-28T13:31:55.229Z,51.70
2018-06-28T13:34:23.704Z,51.40
2018-06-28T13:36:52.047Z,51.50
2018-06-28T13:39:20.451Z,51.10
2018-06-28T13:41:48.811Z,51.30
2018-06-28T13:44:17.134Z,50.50
2018-06-28T13:46:45.550Z,50.30
2018-06-28T13:49:13.979Z,51.10
2018-06-28T13:51:42.355Z,50.90
2018-06-28T13:54:10.834Z,49.60
2018-06-28T13:56:39.335Z,50.50
2018-06-28T14:01:38.358Z,50.80
2018-06-28T14:04:06.779Z,49.50
2018-06-28T14:06:35.144Z,48.80
2018-06-28T14:09:03.653Z,48.80
2018-06-28T14:11:32.014Z,47.50
2018-06-28T14:14:01.309Z,47.40
2018-06-28T14:16:29.715Z,48.00
2018-06-28T14:18:58.073Z,49.00
2018-06-28T14:21:27.526Z,48.60
2018-06-28T14:23:55.870Z,50.10
2018-06-28T14:26:24.291Z,50.40
2018-06-28T14:28:52.646Z,51.70
2018-06-28T14:31:21.122Z,53.00
2018-06-28T14:33:49.615Z,52.90
2018-06-28T14:36:18.134Z,51.90
2018-06-28T14:38:46.592Z,51.00
2018-06-28T14:41:15.113Z,51.00
2018-06-28T14:43:43.532Z,51.30
2018-06-28T14:48:39.907Z,49.30
2018-06-28T14:51:08.816Z,49.80
2018-06-28T14:53:37.195Z,50.10
2018-06-28T14:56:12.368Z,49.10
2018-06-28T14:58:40.868Z,48.50
2018-06-28T15:01:09.139Z,49.70
2018-06-28T15:03:37.508Z,49.40
2018-06-28T15:06:05.863Z,49.70
2018-06-28T15:08:34.267Z,49.00
2018-06-28T15:11:03.632Z,49.30
2018-06-28T15:13:32.090Z,49.70
2018-06-28T15:16:00.494Z,48.20
2018-06-28T15:18:28.821Z,49.10
2018-06-28T15:23:25.483Z,49.00
2018-06-28T15:25:54.011Z,48.80
2018-06-28T15:28:22.469Z,49.60
2018-06-28T15:30:51.273Z,50.50
2018-06-28T15:33:20.761Z,51.30
2018-06-28T15:35:49.207Z,51.50
2018-06-28T15:38:17.840Z,51.70
2018-06-28T15:40:46.257Z,49.70
2018-06-28T15:43:14.575Z,49.50
2018-06-28T15:45:43.093Z,48.60
2018-06-28T15:48:11.816Z,50.00
2018-06-28T15:50:40.175Z,50.30
2018-06-28T15:53:08.884Z,51.10
2018-06-28T15:55:37.236Z,50.40
2018-06-28T15:58:06.402Z,50.10
2018-06-28T16:00:34.753Z,49.10
2018-06-28T16:03:03.108Z,49.00
2018-06-28T16:05:31.588Z,48.60
2018-06-28T16:08:00.056Z,48.60
2018-06-28T16:10:29.339Z,48.50
2018-06-28T16:12:57.843Z,49.00
2018-06-28T16:17:54.341Z,48.80
2018-06-28T16:20:22.754Z,47.60
2018-06-28T16:22:51.095Z,48.30
2018-06-28T16:25:19.444Z,48.20
2018-06-28T16:27:47.804Z,47.40
2018-06-28T16:30:16.220Z,47.90
2018-06-28T16:32:44.714Z,47.50
2018-06-28T16:35:13.047Z,46.80
2018-06-28T16:37:41.442Z,46.60
2018-06-28T16:42:37.986Z,47.00
2018-06-28T16:45:06.431Z,48.00
2018-06-28T16:47:34.812Z,47.60
2018-06-28T16:50:03.263Z,48.30
2018-06-28T16:52:31.577Z,48.40
2018-06-28T16:54:59.981Z,48.00
2018-06-28T16:57:28.390Z,48.10
2018-06-28T16:59:56.780Z,47.70
2018-06-28T17:02:25.188Z,47.80
2018-06-28T17:04:56.816Z,47.80
2018-06-28T17:07:25.273Z,48.80
2018-06-28T17:12:21.762Z,49.30
2018-06-28T17:14:50.079Z,49.40
2018-06-28T17:17:18.477Z,48.80
2018-06-28T17:19:46.941Z,47.40
2018-06-28T17:22:15.326Z,48.20
2018-06-28T17:27:11.898Z,47.60
2018-06-28T17:29:40.646Z,47.60
2018-06-28T17:32:09.234Z,47.40
2018-06-28T17:34:37.593Z,47.30
2018-06-28T17:37:05.962Z,47.30
2018-06-28T17:39:34.550Z,46.30
2018-06-28T17:42:02.944Z,46.40
2018-06-28T17:44:31.234Z,46.30
2018-06-28T17:46:59.739Z,45.90
2018-06-28T17:49:28.191Z,44.90
2018-06-28T17:51:56.508Z,45.50
2018-06-28T17:54:24.849Z,46.00
2018-06-28T17:56:53.159Z,45.20
2018-06-28T17:59:21.613Z,45.20
2018-06-28T18:01:50.841Z,45.40
2018-06-28T18:04:19.354Z,46.50
2018-06-28T18:06:47.890Z,46.80
2018-06-28T18:09:16.244Z,46.40
2018-06-28T18:11:44.607Z,46.60
2018-06-28T18:14:13.068Z,46.80
2018-06-28T18:16:41.409Z,47.10
2018-06-28T18:19:09.830Z,47.20
2018-06-28T18:21:38.217Z,46.80
2018-06-28T18:24:06.608Z,46.60
2018-06-28T18:26:34.957Z,47.10
2018-06-28T18:29:03.350Z,47.40
2018-06-28T18:31:31.778Z,46.20
2018-06-28T18:34:00.382Z,45.70
2018-06-28T18:36:28.813Z,45.50
2018-06-28T18:38:57.432Z,45.90
2018-06-28T18:41:25.983Z,46.10
2018-06-28T18:43:54.673Z,46.00
2018-06-28T18:46:23.209Z,46.00
2018-06-28T18:48:51.611Z,46.40
2018-06-28T18:51:20.010Z,45.80
2018-06-28T18:56:16.385Z,47.00
2018-06-28T19:01:12.873Z,47.30
2018-06-28T19:03:41.273Z,47.80
2018-06-28T19:06:09.692Z,48.80
2018-06-28T19:08:38.062Z,50.00
2018-06-28T19:11:07.048Z,51.30
2018-06-28T19:13:40.004Z,52.60
2018-06-28T19:16:13.751Z,53.60
2018-06-28T19:18:42.055Z,54.70
2018-06-28T19:21:16.389Z,55.60
2018-06-28T19:26:18.893Z,56.90
2018-06-28T19:28:48.162Z,57.50
2018-06-28T19:31:21.866Z,58.00
2018-06-28T19:33:50.463Z,58.80
2018-06-28T19:36:18.959Z,59.10
2018-06-28T19:38:52.524Z,59.50
2018-06-28T19:41:26.384Z,59.90
2018-06-28T19:43:54.757Z,60.30
2018-06-28T19:46:23.117Z,60.60
2018-06-28T19:48:51.415Z,61.00
2018-06-28T19:51:25.060Z,61.30
2018-06-28T19:53:53.675Z,62.40
2018-06-28T19:56:22.039Z,62.10
2018-06-28T19:58:50.505Z,62.60
2018-06-28T20:01:24.306Z,62.90
2018-06-28T20:03:58.780Z,63.60
2018-06-28T20:06:27.117Z,63.70
2018-06-28T20:08:55.581Z,64.20
2018-06-28T20:11:23.922Z,64.60
2018-06-28T20:13:57.509Z,64.80
2018-06-28T20:16:31.951Z,65.10
2018-06-28T20:19:05.633Z,65.30
2018-06-28T20:21:34.010Z,65.00
2018-06-28T20:24:02.358Z,65.80
2018-06-28T20:27:38.803Z,66.10
2018-06-28T20:30:12.805Z,66.30
2018-06-28T20:32:46.560Z,66.70
2018-06-28T20:35:15.289Z,67.80
2018-06-28T20:37:44.869Z,67.20
2018-06-28T20:40:13.535Z,67.70
2018-06-28T20:42:42.068Z,67.70
2018-06-28T20:45:10.602Z,68.20
2018-06-28T20:47:38.979Z,68.50
2018-06-28T20:50:07.469Z,68.70
2018-06-28T20:52:35.814Z,69.10
2018-06-28T20:55:04.236Z,69.30
2018-06-28T20:57:32.673Z,69.60
2018-06-28T21:00:01.617Z,69.90
2018-06-28T21:02:30.048Z,70.10
2018-06-28T21:04:58.461Z,70.60
2018-06-28T21:07:32.446Z,70.80
2018-06-28T21:10:02.428Z,71.10
2018-06-28T21:12:30.761Z,71.50
2018-06-28T21:14:59.065Z,71.80
2018-06-28T21:17:28.953Z,72.20
2018-06-28T21:19:57.333Z,72.60
2018-06-28T21:22:26.039Z,73.70
2018-06-28T21:24:54.693Z,73.20
2018-06-28T21:27:23.194Z,73.50
2018-06-28T21:29:51.762Z,73.80
2018-06-28T21:32:20.647Z,74.10
2018-06-28T21:34:49.276Z,74.30
2018-06-28T21:37:17.591Z,74.50
2018-06-28T21:39:46.012Z,75.40
2018-06-28T21:42:14.502Z,75.00
2018-06-28T21:44:42.818Z,75.10
2018-06-28T21:47:11.246Z,75.90
2018-06-28T21:49:39.616Z,75.50
2018-06-28T21:52:08.092Z,75.80
2018-06-28T21:54:36.479Z,76.00
2018-06-28T21:57:04.861Z,75.90
2018-06-28T21:59:33.222Z,76.10
2018-06-28T22:02:01.552Z,76.10
2018-06-28T22:04:30.022Z,76.40
2018-06-28T22:06:58.578Z,76.50
2018-06-28T22:09:27.144Z,76.50
2018-06-28T22:11:55.495Z,76.60
2018-06-28T22:14:25.175Z,77.50
2018-06-28T22:16:53.489Z,76.80
2018-06-28T22:19:21.827Z,76.90
2018-06-28T22:21:50.183Z,77.10
2018-06-28T22:24:18.609Z,77.00
2018-06-28T22:26:46.980Z,77.20
2018-06-28T22:29:15.316Z,77.30
2018-06-28T22:31:43.754Z,77.50
2018-06-28T22:34:12.139Z,77.70
2018-06-28T22:36:40.473Z,77.80
2018-06-28T22:39:11.295Z,77.80
2018-06-28T22:41:39.999Z,78.10
2018-06-28T22:44:08.450Z,78.10
2018-06-28T22:46:37.326Z,78.10
2018-06-28T22:49:06.407Z,78.20
2018-06-28T22:51:34.792Z,78.20
2018-06-28T22:54:03.216Z,78.40
2018-06-28T22:56:31.725Z,78.70
2018-06-28T22:59:00.131Z,78.70
2018-06-28T23:01:28.460Z,78.70
2018-06-28T23:03:56.872Z,78.70
2018-06-28T23:06:25.248Z,79.10
2018-06-28T23:08:53.578Z,79.10
2018-06-28T23:11:21.931Z,79.10
2018-06-28T23:13:50.243Z,79.20
2018-06-28T23:16:18.688Z,79.10
2018-06-28T23:18:47.004Z,79.30
2018-06-28T23:21:16.152Z,79.30
2018-06-28T23:23:44.632Z,79.20
2018-06-28T23:26:13.289Z,79.50
2018-06-28T23:28:41.742Z,79.50
2018-06-28T23:31:10.185Z,79.60
2018-06-28T23:33:38.508Z,79.70
2018-06-28T23:36:06.905Z,79.70
2018-06-28T23:38:35.288Z,79.80
2018-06-28T23:41:04.577Z,79.80
2018-06-28T23:43:33.260Z,79.70
2018-06-28T23:46:03.713Z,79.80
2018-06-28T23:48:32.021Z,80.00
2018-06-28T23:51:00.514Z,80.10
2018-06-28T23:53:30.020Z,80.10
2018-06-28T23:55:58.489Z,80.10
2018-06-28T23:58:28.454Z,80.40
